createdAt,value
2022-12-18T00:02:49.779Z,10.63
2022-12-18T00:05:53.273Z,11.27
2022-12-18T00:08:57.463Z,11.45
2022-12-18T00:11:59.790Z,10.70
2022-12-18T00:15:02.137Z,11.15
2022-12-18T00:18:05.537Z,10.30
2022-12-18T00:21:11.341Z,10.77
2022-12-18T00:24:13.713Z,11.38
2022-12-18T00:27:16.095Z,11.18
2022-12-18T00:30:18.684Z,12.07
2022-12-18T00:33:21.017Z,12.10
2022-12-18T00:36:29.101Z,10.93
2022-12-18T00:39:31.502Z,11.45
2022-12-18T00:42:53.550Z,11.10
2022-12-18T00:45:55.944Z,11.48
2022-12-18T00:48:58.457Z,12.07
2022-12-18T00:52:00.810Z,11.93
2022-12-18T00:55:06.435Z,11.20
2022-12-18T00:58:10.462Z,10.65
2022-12-18T01:01:12.843Z,11.40
2022-12-18T01:04:16.272Z,10.90
2022-12-18T01:07:21.376Z,10.65
2022-12-18T01:10:24.598Z,11.27
2022-12-18T01:13:27.766Z,10.40
2022-12-18T01:16:30.173Z,10.45
2022-12-18T01:19:33.217Z,10.88
2022-12-18T01:22:36.311Z,11.23
2022-12-18T01:25:39.647Z,10.27
2022-12-18T01:28:45.820Z,10.30
2022-12-18T01:31:48.305Z,10.73
2022-12-18T01:34:50.726Z,10.65
2022-12-18T01:37:56.210Z,9.85
2022-12-18T01:40:59.816Z,10.00
2022-12-18T01:44:02.122Z,8.87
2022-12-18T01:47:04.774Z,10.45
2022-12-18T01:50:15.727Z,9.07
2022-12-18T01:53:24.579Z,9.83
2022-12-18T01:56:27.030Z,10.15
2022-12-18T01:59:32.386Z,10.65
2022-12-18T02:02:35.274Z,9.70
2022-12-18T02:06:02.335Z,9.75
2022-12-18T02:09:19.384Z,10.48
2022-12-18T02:12:25.515Z,9.38
2022-12-18T02:15:49.398Z,9.10
2022-12-18T02:18:59.118Z,9.82
2022-12-18T02:22:13.243Z,9.00
2022-12-18T02:25:43.634Z,9.83
2022-12-18T02:29:01.479Z,8.90
2022-12-18T02:32:11.458Z,10.65
2022-12-18T02:35:19.612Z,9.43
2022-12-18T02:38:23.681Z,9.25
2022-12-18T02:41:28.398Z,9.98
2022-12-18T02:44:30.814Z,10.02
2022-12-18T02:47:39.094Z,8.77
2022-12-18T02:51:28.936Z,8.43
2022-12-18T02:54:54.570Z,9.20
2022-12-18T02:58:11.435Z,10.37
2022-12-18T03:01:24.175Z,9.27
2022-12-18T03:04:39.418Z,9.38
2022-12-18T03:07:57.330Z,8.52
2022-12-18T03:11:05.708Z,8.65
2022-12-18T03:14:12.519Z,8.55
2022-12-18T03:17:20.410Z,9.10
2022-12-18T03:20:25.592Z,8.67
2022-12-18T03:23:35.602Z,8.32
2022-12-18T03:26:44.561Z,8.93
2022-12-18T03:30:11.195Z,8.20
2022-12-18T03:33:20.720Z,7.80
2022-12-18T03:36:25.705Z,9.23
2022-12-18T03:39:28.366Z,9.00
2022-12-18T03:42:40.438Z,8.13
2022-12-18T03:45:58.584Z,7.60
2022-12-18T03:49:23.534Z,8.43
2022-12-18T03:52:25.954Z,8.80
2022-12-18T03:55:34.588Z,10.63
2022-12-18T03:58:42.276Z,10.88
2022-12-18T04:01:56.003Z,10.07
2022-12-18T04:05:03.668Z,10.18
2022-12-18T04:08:06.288Z,10.73
2022-12-18T04:11:12.360Z,9.82
2022-12-18T04:14:17.988Z,11.55
2022-12-18T04:17:22.902Z,10.23
2022-12-18T04:20:25.878Z,10.88
2022-12-18T04:23:29.387Z,11.13
2022-12-18T04:26:34.214Z,11.35
2022-12-18T04:29:50.345Z,11.10
2022-12-18T04:32:54.135Z,12.40
2022-12-18T04:35:57.723Z,10.70
2022-12-18T04:39:01.522Z,12.40
2022-12-18T04:42:04.035Z,15.07
2022-12-18T04:45:07.159Z,12.38
2022-12-18T04:48:09.618Z,12.77
2022-12-18T04:51:12.951Z,11.30
2022-12-18T04:54:15.310Z,11.43
2022-12-18T04:57:19.023Z,12.65
2022-12-18T05:00:21.811Z,12.25
2022-12-18T05:03:24.251Z,12.67
2022-12-18T05:06:26.659Z,12.93
2022-12-18T05:09:29.026Z,12.25
2022-12-18T05:12:32.530Z,13.27
2022-12-18T05:15:35.372Z,10.25
2022-12-18T05:18:38.083Z,11.48
2022-12-18T05:21:40.416Z,12.68
2022-12-18T05:24:42.801Z,12.53
2022-12-18T05:27:45.951Z,13.90
2022-12-18T05:30:53.332Z,14.85
2022-12-18T05:33:55.753Z,17.07
2022-12-18T05:36:58.148Z,17.92
2022-12-18T05:40:00.667Z,20.23
2022-12-18T05:43:03.054Z,20.42
2022-12-18T05:46:12.639Z,20.25
2022-12-18T05:49:15.225Z,22.05
2022-12-18T05:52:17.834Z,19.65
2022-12-18T05:55:20.204Z,20.97
2022-12-18T05:58:22.584Z,19.98
2022-12-18T06:01:27.439Z,19.27
2022-12-18T06:04:30.045Z,18.63
2022-12-18T06:07:32.387Z,17.80
2022-12-18T06:10:34.823Z,21.13
2022-12-18T06:13:39.288Z,21.48
2022-12-18T06:16:41.950Z,23.40
2022-12-18T06:19:44.301Z,25.75
2022-12-18T06:22:46.866Z,25.48
2022-12-18T06:25:49.182Z,22.03
2022-12-18T06:28:51.556Z,23.98
2022-12-18T06:31:54.006Z,23.80
2022-12-18T06:34:56.546Z,19.47
2022-12-18T06:37:58.949Z,18.35
2022-12-18T06:41:01.473Z,17.15
2022-12-18T06:44:04.126Z,14.52
2022-12-18T06:47:06.503Z,14.35
2022-12-18T06:50:08.934Z,15.85
2022-12-18T06:53:11.291Z,13.75
2022-12-18T06:56:13.882Z,13.50
2022-12-18T06:59:16.339Z,14.93
2022-12-18T07:02:19.018Z,13.50
2022-12-18T07:05:21.490Z,13.97
2022-12-18T07:08:24.059Z,13.18
2022-12-18T07:11:26.557Z,13.77
2022-12-18T07:14:28.937Z,14.90
2022-12-18T07:17:32.334Z,16.45
2022-12-18T07:20:34.762Z,19.58
2022-12-18T07:23:37.880Z,19.13
2022-12-18T07:26:40.518Z,16.80
2022-12-18T07:29:42.879Z,15.90
2022-12-18T07:32:45.238Z,16.45
2022-12-18T07:35:47.624Z,15.07
2022-12-18T07:38:50.757Z,18.40
2022-12-18T07:42:11.578Z,17.20
2022-12-18T07:45:16.005Z,30.80
2022-12-18T07:48:18.410Z,14.35
2022-12-18T07:51:20.895Z,18.73
2022-12-18T07:54:24.138Z,17.27
2022-12-18T07:57:49.413Z,15.63
2022-12-18T08:00:48.896Z,15.63
2022-12-18T08:03:52.213Z,15.98
2022-12-18T08:06:54.783Z,16.23
2022-12-18T08:09:57.186Z,15.90
2022-12-18T08:13:04.555Z,16.60
2022-12-18T08:16:09.070Z,19.75
2022-12-18T08:19:11.550Z,18.10
2022-12-18T08:22:13.970Z,44.00
2022-12-18T08:25:16.524Z,34.60
2022-12-18T08:28:19.046Z,23.20
2022-12-18T08:31:22.354Z,20.48
2022-12-18T08:34:25.949Z,17.63
2022-12-18T08:37:28.346Z,16.60
2022-12-18T08:40:30.799Z,17.92
2022-12-18T08:43:51.944Z,17.80
2022-12-18T08:46:54.312Z,18.05
2022-12-18T08:49:56.827Z,20.50
2022-12-18T08:52:59.218Z,17.88
2022-12-18T08:56:01.582Z,19.23
2022-12-18T08:59:05.391Z,20.80
2022-12-18T09:02:10.988Z,21.13
2022-12-18T09:05:13.580Z,21.33
2022-12-18T09:08:15.925Z,25.40
2022-12-18T09:11:24.391Z,25.52
2022-12-18T09:14:26.823Z,27.05
2022-12-18T09:17:29.259Z,24.23
2022-12-18T09:20:31.646Z,24.33
2022-12-18T09:23:34.047Z,25.65
2022-12-18T09:26:37.415Z,22.38
2022-12-18T09:29:40.594Z,21.37
2022-12-18T09:32:43.002Z,22.70
2022-12-18T09:35:46.567Z,21.90
2022-12-18T09:38:49.092Z,21.10
2022-12-18T09:41:58.951Z,20.90
2022-12-18T09:45:01.973Z,20.90
2022-12-18T09:48:08.117Z,21.25
2022-12-18T09:51:18.515Z,19.75
2022-12-18T09:54:31.307Z,19.23
2022-12-18T09:57:38.393Z,21.25
2022-12-18T10:00:44.085Z,17.53
2022-12-18T10:03:46.836Z,16.95
2022-12-18T10:07:17.722Z,15.20
2022-12-18T10:10:50.561Z,16.67
2022-12-18T10:13:56.482Z,13.68
2022-12-18T10:17:09.323Z,15.93
2022-12-18T10:20:30.356Z,14.10
2022-12-18T10:23:58.314Z,11.98
2022-12-18T10:27:15.515Z,12.90
2022-12-18T10:30:20.639Z,13.80
2022-12-18T10:33:25.502Z,13.63
2022-12-18T10:36:27.907Z,14.60
2022-12-18T10:39:30.402Z,13.57
2022-12-18T10:42:32.922Z,13.37
2022-12-18T10:45:36.105Z,14.10
2022-12-18T10:48:48.524Z,12.60
2022-12-18T10:51:52.495Z,13.57
2022-12-18T10:55:04.746Z,14.57
2022-12-18T10:58:35.317Z,13.65
2022-12-18T11:01:48.697Z,13.40
2022-12-18T11:04:52.805Z,12.07
2022-12-18T11:07:55.481Z,13.93
2022-12-18T11:10:57.907Z,15.25
2022-12-18T11:14:05.345Z,19.00
2022-12-18T11:17:29.219Z,17.90
2022-12-18T11:20:37.530Z,16.27
2022-12-18T11:24:18.731Z,15.38
2022-12-18T11:27:21.961Z,12.80
2022-12-18T11:30:27.136Z,12.43
2022-12-18T11:33:29.568Z,13.73
2022-12-18T11:36:38.003Z,15.27
2022-12-18T11:39:53.947Z,18.25
2022-12-18T11:43:04.858Z,17.00
2022-12-18T11:46:19.664Z,16.77
2022-12-18T11:49:27.884Z,16.48
2022-12-18T11:52:39.241Z,16.85
2022-12-18T11:56:30.615Z,17.48
2022-12-18T11:59:46.283Z,16.35
2022-12-18T12:02:57.641Z,19.10
2022-12-18T12:06:20.531Z,17.70
2022-12-18T12:09:34.998Z,18.00
2022-12-18T12:12:55.734Z,17.35
2022-12-18T12:16:10.870Z,18.60
2022-12-18T12:19:37.914Z,16.87
2022-12-18T12:23:16.200Z,17.00
2022-12-18T12:26:41.472Z,15.05
2022-12-18T12:30:00.051Z,16.90
2022-12-18T12:33:22.362Z,15.77
2022-12-18T12:36:47.933Z,16.42
2022-12-18T12:39:53.601Z,15.20
2022-12-18T12:43:14.372Z,15.37
2022-12-18T12:46:20.933Z,18.02
2022-12-18T12:49:30.113Z,14.27
2022-12-18T12:52:52.018Z,15.87
2022-12-18T12:55:55.919Z,14.60
2022-12-18T12:59:24.600Z,14.80
2022-12-18T13:02:34.338Z,15.52
2022-12-18T13:05:54.077Z,15.40
2022-12-18T13:09:01.659Z,15.75
2022-12-18T13:12:34.991Z,14.02
2022-12-18T13:16:20.423Z,14.23
2022-12-18T13:19:26.378Z,16.77
2022-12-18T13:22:37.278Z,19.45
2022-12-18T13:25:39.797Z,23.40
2022-12-18T13:28:48.275Z,18.55
2022-12-18T13:31:50.637Z,24.85
2022-12-18T13:35:18.949Z,26.75
2022-12-18T13:38:36.642Z,27.23
2022-12-18T13:41:39.382Z,26.75
2022-12-18T13:44:42.757Z,25.77
2022-12-18T13:47:46.578Z,25.63
2022-12-18T13:51:10.134Z,24.88
2022-12-18T13:54:31.230Z,23.50
2022-12-18T13:57:44.766Z,24.77
2022-12-18T14:00:47.281Z,21.98
2022-12-18T14:03:51.315Z,19.77
2022-12-18T14:06:58.311Z,18.15
2022-12-18T14:10:12.618Z,19.23
2022-12-18T14:13:35.546Z,18.20
2022-12-18T14:16:37.945Z,15.98
2022-12-18T14:19:51.907Z,15.73
2022-12-18T14:22:55.463Z,18.63
2022-12-18T14:26:02.235Z,20.55
2022-12-18T14:29:28.898Z,19.37
2022-12-18T14:32:31.229Z,14.88
2022-12-18T14:35:36.278Z,23.65
2022-12-18T14:38:41.018Z,27.27
2022-12-18T14:41:43.434Z,30.15
2022-12-18T14:48:19.115Z,30.98
2022-12-18T14:51:28.193Z,31.57
2022-12-18T14:54:32.399Z,27.98
2022-12-18T14:57:38.890Z,25.80
2022-12-18T15:00:43.451Z,28.30
2022-12-18T15:03:45.970Z,28.90
2022-12-18T15:06:49.271Z,28.92
2022-12-18T15:10:23.179Z,28.83
2022-12-18T15:13:25.899Z,29.08
2022-12-18T15:16:28.985Z,26.52
2022-12-18T15:19:43.696Z,23.80
2022-12-18T15:22:48.476Z,33.73
2022-12-18T15:25:58.510Z,29.95
2022-12-18T15:29:03.695Z,25.20
2022-12-18T15:32:20.090Z,25.03
2022-12-18T15:35:25.214Z,25.77
2022-12-18T15:38:28.037Z,26.98
2022-12-18T15:41:36.040Z,25.98
2022-12-18T15:44:38.835Z,27.10
2022-12-18T15:47:44.980Z,27.25
2022-12-18T15:50:47.739Z,30.15
2022-12-18T15:53:53.910Z,26.50
2022-12-18T15:57:14.665Z,26.30
2022-12-18T16:00:17.795Z,21.83
2022-12-18T16:03:20.458Z,23.77
2022-12-18T16:06:23.572Z,19.08
2022-12-18T16:09:26.367Z,21.25
2022-12-18T16:12:29.473Z,24.20
2022-12-18T16:15:32.011Z,24.33
2022-12-18T16:18:34.635Z,22.98
2022-12-18T16:21:37.617Z,22.00
2022-12-18T16:24:40.111Z,19.93
2022-12-18T16:27:42.715Z,19.70
2022-12-18T16:30:46.467Z,18.85
2022-12-18T16:33:48.929Z,19.00
2022-12-18T16:36:51.384Z,18.77
2022-12-18T16:39:53.959Z,18.10
2022-12-18T16:42:56.371Z,19.00
2022-12-18T16:46:00.312Z,18.67
2022-12-18T16:49:02.982Z,18.23
2022-12-18T16:52:06.653Z,18.70
2022-12-18T16:55:10.027Z,18.50
2022-12-18T16:58:13.080Z,18.02
2022-12-18T17:01:15.854Z,17.40
2022-12-18T17:04:18.410Z,19.07
2022-12-18T17:07:21.167Z,21.40
2022-12-18T17:10:23.948Z,26.60
2022-12-18T17:13:27.607Z,27.02
2022-12-18T17:16:30.277Z,26.23
2022-12-18T17:19:33.975Z,25.73
2022-12-18T17:22:36.382Z,25.23
2022-12-18T17:25:41.819Z,23.53
2022-12-18T17:28:44.501Z,24.88
2022-12-18T17:31:48.139Z,20.25
2022-12-18T17:34:50.785Z,20.87
2022-12-18T17:37:53.313Z,23.58
2022-12-18T17:41:01.440Z,25.10
2022-12-18T17:44:06.205Z,21.83
2022-12-18T17:47:12.025Z,21.95
2022-12-18T17:50:14.814Z,21.27
2022-12-18T17:53:17.399Z,20.60
2022-12-18T17:56:22.084Z,18.13
2022-12-18T17:59:24.967Z,18.70
2022-12-18T18:02:27.759Z,15.43
2022-12-18T18:05:30.870Z,14.10
2022-12-18T18:08:35.208Z,13.35
2022-12-18T18:11:56.316Z,14.20
2022-12-18T18:14:59.160Z,15.63
2022-12-18T18:18:01.999Z,15.40
2022-12-18T18:21:06.303Z,18.13
2022-12-18T18:24:11.284Z,17.25
2022-12-18T18:27:14.107Z,20.60
2022-12-18T18:30:16.923Z,21.58
2022-12-18T18:33:19.659Z,23.17
2022-12-18T18:36:23.607Z,23.10
2022-12-18T18:39:26.813Z,21.73
2022-12-18T18:42:29.983Z,23.67
2022-12-18T18:45:32.619Z,17.58
2022-12-18T18:48:37.354Z,19.30
2022-12-18T18:51:41.542Z,21.00
2022-12-18T18:55:10.732Z,21.85
2022-12-18T18:58:10.134Z,15.37
2022-12-18T19:01:18.016Z,14.23
2022-12-18T19:04:20.879Z,14.32
2022-12-18T19:07:30.347Z,13.93
2022-12-18T19:10:33.675Z,13.57
2022-12-18T19:13:36.318Z,13.18
2022-12-18T19:16:39.609Z,12.43
2022-12-18T19:19:42.423Z,13.20
2022-12-18T19:22:54.972Z,16.33
2022-12-18T19:26:26.932Z,17.10
2022-12-18T19:29:26.554Z,15.50
2022-12-18T19:32:29.155Z,16.55
2022-12-18T19:35:31.744Z,20.23
2022-12-18T19:38:34.965Z,26.07
2022-12-18T19:41:38.002Z,27.33
2022-12-18T19:44:41.081Z,16.45
2022-12-18T19:47:44.023Z,9.82
2022-12-18T19:50:46.583Z,8.77
2022-12-18T19:53:54.942Z,9.43
2022-12-18T19:57:00.630Z,10.43
2022-12-18T20:00:04.139Z,9.40
2022-12-18T20:03:25.248Z,8.65
2022-12-18T20:06:32.510Z,9.13
2022-12-18T20:09:36.849Z,10.47
2022-12-18T20:12:39.822Z,10.65
2022-12-18T20:15:45.363Z,11.10
2022-12-18T20:18:49.217Z,12.23
2022-12-18T20:21:51.750Z,15.70
2022-12-18T20:24:54.300Z,14.38
2022-12-18T20:27:56.873Z,11.05
2022-12-18T20:31:02.134Z,9.83
2022-12-18T20:34:06.217Z,13.30
2022-12-18T20:37:19.462Z,8.80
2022-12-18T20:40:23.619Z,8.40
2022-12-18T20:43:26.157Z,8.63
2022-12-18T20:46:28.593Z,9.45
2022-12-18T20:49:30.997Z,13.48
2022-12-18T20:52:33.622Z,10.85
2022-12-18T20:55:41.394Z,8.85
2022-12-18T20:58:44.135Z,8.38
2022-12-18T21:01:48.813Z,8.07
2022-12-18T21:04:53.261Z,8.77
2022-12-18T21:07:55.734Z,7.78
2022-12-18T21:11:35.842Z,8.10
2022-12-18T21:14:38.269Z,9.88
2022-12-18T21:17:45.012Z,10.23
2022-12-18T21:20:47.989Z,9.75
2022-12-18T21:23:51.160Z,10.32
2022-12-18T21:26:54.465Z,11.60
2022-12-18T21:29:56.910Z,10.75
2022-12-18T21:32:59.498Z,9.37
2022-12-18T21:36:06.473Z,11.23
2022-12-18T21:39:09.114Z,9.05
2022-12-18T21:42:30.454Z,9.37
2022-12-18T21:45:33.197Z,9.75
2022-12-18T21:48:38.406Z,12.18
2022-12-18T21:51:41.222Z,15.40
2022-12-18T21:54:43.687Z,12.25
2022-12-18T21:57:46.246Z,13.88
2022-12-18T22:00:50.123Z,12.52
2022-12-18T22:03:53.045Z,10.33
2022-12-18T22:06:55.755Z,11.18
2022-12-18T22:09:58.456Z,12.27
2022-12-18T22:13:02.311Z,11.03
2022-12-18T22:16:05.050Z,12.38
2022-12-18T22:19:07.697Z,12.13
2022-12-18T22:22:10.070Z,11.27
2022-12-18T22:25:12.591Z,11.57
2022-12-18T22:28:33.323Z,8.82
2022-12-18T22:31:36.023Z,9.38
2022-12-18T22:34:39.453Z,9.63
2022-12-18T22:37:41.842Z,10.43
2022-12-18T22:40:44.213Z,9.50
2022-12-18T22:43:46.654Z,10.77
2022-12-18T22:47:05.519Z,13.82
2022-12-18T22:50:12.997Z,13.40
2022-12-18T22:53:15.378Z,12.93
2022-12-18T22:56:21.366Z,12.32
2022-12-18T22:59:24.310Z,12.10
2022-12-18T23:02:26.978Z,9.85
2022-12-18T23:05:30.958Z,11.13
2022-12-18T23:08:34.876Z,10.15
2022-12-18T23:11:37.267Z,9.98
2022-12-18T23:14:39.618Z,11.17
2022-12-18T23:17:41.981Z,9.70
2022-12-18T23:20:44.371Z,10.27
2022-12-18T23:23:46.810Z,9.90
2022-12-18T23:26:49.210Z,11.02
2022-12-18T23:29:51.585Z,10.98
2022-12-18T23:32:55.118Z,12.18
2022-12-18T23:36:02.209Z,12.57
2022-12-18T23:39:04.718Z,12.65
2022-12-18T23:42:07.092Z,11.02
2022-12-18T23:45:15.859Z,15.57
2022-12-18T23:48:21.154Z,10.82
2022-12-18T23:51:25.627Z,11.05
2022-12-18T23:54:33.232Z,11.73
2022-12-18T23:57:36.139Z,12.27
